sensor_id;sensor_type;location;lat;lon;timestamp;temperature;humidity
81726;DHT22;71135;16.738;-14.648;2023-08-30T00:01:31;15.50;66.50
81726;DHT22;71135;16.738;-14.648;2023-08-30T00:04:03;15.40;66.60
81726;DHT22;71135;16.738;-14.648;2023-08-30T00:06:32;15.40;66.70
81726;DHT22;71135;16.738;-14.648;2023-08-30T00:09:01;15.40;66.70
81726;DHT22;71135;16.738;-14.648;2023-08-30T00:11:30;15.30;66.70
81726;DHT22;71135;16.738;-14.648;2023-08-30T00:14:03;15.30;66.80
81726;DHT22;71135;16.738;-14.648;2023-08-30T00:16:33;15.30;66.80
81726;DHT22;71135;16.738;-14.648;2023-08-30T00:19:05;15.30;66.90
81726;DHT22;71135;16.738;-14.648;2023-08-30T00:21:34;15.20;66.90
81726;DHT22;71135;16.738;-14.648;2023-08-30T00:24:05;15.10;67.00
81726;DHT22;71135;16.738;-14.648;2023-08-30T00:26:34;15.00;67.10
81726;DHT22;71135;16.738;-14.648;2023-08-30T00:29:05;15.00;67.10
81726;DHT22;71135;16.738;-14.648;2023-08-30T00:31:34;15.00;67.20
81726;DHT22;71135;16.738;-14.648;2023-08-30T00:34:06;15.00;67.20
81726;DHT22;71135;16.738;-14.648;2023-08-30T00:36:35;14.90;67.30
81726;DHT22;71135;16.738;-14.648;2023-08-30T00:39:05;14.80;67.40
81726;DHT22;71135;16.738;-14.648;2023-08-30T00:41:34;14.80;67.40
81726;DHT22;71135;16.738;-14.648;2023-08-30T00:44:04;14.80;67.50
81726;DHT22;71135;16.738;-14.648;2023-08-30T00:46:34;14.70;67.50
81726;DHT22;71135;16.738;-14.648;2023-08-30T00:49:08;14.70;67.50
81726;DHT22;71135;16.738;-14.648;2023-08-30T00:51:37;14.60;67.60
81726;DHT22;71135;16.738;-14.648;2023-08-30T00:54:07;14.60;67.60
81726;DHT22;71135;16.738;-14.648;2023-08-30T00:56:37;14.50;67.70
81726;DHT22;71135;16.738;-14.648;2023-08-30T00:59:06;14.50;67.70
81726;DHT22;71135;16.738;-14.648;2023-08-30T01:01:35;14.50;67.70
81726;DHT22;71135;16.738;-14.648;2023-08-30T01:04:12;14.50;67.70
81726;DHT22;71135;16.738;-14.648;2023-08-30T01:06:42;14.50;67.70
81726;DHT22;71135;16.738;-14.648;2023-08-30T01:09:11;14.40;67.70
81726;DHT22;71135;16.738;-14.648;2023-08-30T01:11:56;14.40;67.70
81726;DHT22;71135;16.738;-14.648;2023-08-30T01:14:31;14.40;67.70
81726;DHT22;71135;16.738;-14.648;2023-08-30T01:17:03;14.40;67.70
81726;DHT22;71135;16.738;-14.648;2023-08-30T01:19:42;14.50;67.60
81726;DHT22;71135;16.738;-14.648;2023-08-30T01:22:21;14.60;67.50
81726;DHT22;71135;16.738;-14.648;2023-08-30T01:25:04;14.60;67.50
81726;DHT22;71135;16.738;-14.648;2023-08-30T01:27:41;14.70;67.30
81726;DHT22;71135;16.738;-14.648;2023-08-30T01:30:14;14.70;67.30
81726;DHT22;71135;16.738;-14.648;2023-08-30T01:32:44;14.70;67.30
81726;DHT22;71135;16.738;-14.648;2023-08-30T01:35:14;14.80;67.20
81726;DHT22;71135;16.738;-14.648;2023-08-30T01:37:46;14.80;67.20
81726;DHT22;71135;16.738;-14.648;2023-08-30T01:40:16;14.80;67.20
81726;DHT22;71135;16.738;-14.648;2023-08-30T01:42:50;14.90;67.20
81726;DHT22;71135;16.738;-14.648;2023-08-30T01:45:20;14.90;67.10
81726;DHT22;71135;16.738;-14.648;2023-08-30T01:47:51;15.00;67.00
81726;DHT22;71135;16.738;-14.648;2023-08-30T01:50:21;15.00;67.00
81726;DHT22;71135;16.738;-14.648;2023-08-30T01:52:53;15.00;67.00
81726;DHT22;71135;16.738;-14.648;2023-08-30T01:55:25;15.10;66.90
81726;DHT22;71135;16.738;-14.648;2023-08-30T01:58:01;15.10;66.90
81726;DHT22;71135;16.738;-14.648;2023-08-30T02:00:30;15.20;66.90
81726;DHT22;71135;16.738;-14.648;2023-08-30T02:03:00;15.20;66.90
81726;DHT22;71135;16.738;-14.648;2023-08-30T02:05:39;15.20;66.80
81726;DHT22;71135;16.738;-14.648;2023-08-30T02:08:13;15.20;66.90
81726;DHT22;71135;16.738;-14.648;2023-08-30T02:10:50;15.30;66.90
81726;DHT22;71135;16.738;-14.648;2023-08-30T02:13:25;15.30;66.80
81726;DHT22;71135;16.738;-14.648;2023-08-30T02:15:56;15.30;66.80
81726;DHT22;71135;16.738;-14.648;2023-08-30T02:18:27;15.30;66.80
81726;DHT22;71135;16.738;-14.648;2023-08-30T02:20:57;15.30;66.80
81726;DHT22;71135;16.738;-14.648;2023-08-30T02:23:27;15.40;66.80
81726;DHT22;71135;16.738;-14.648;2023-08-30T02:25:57;15.40;66.70
81726;DHT22;71135;16.738;-14.648;2023-08-30T02:28:29;15.40;66.70
81726;DHT22;71135;16.738;-14.648;2023-08-30T02:30:58;15.40;66.70
81726;DHT22;71135;16.738;-14.648;2023-08-30T02:33:28;15.50;66.70
81726;DHT22;71135;16.738;-14.648;2023-08-30T02:35:57;15.40;66.80
81726;DHT22;71135;16.738;-14.648;2023-08-30T02:38:26;15.50;66.80
81726;DHT22;71135;16.738;-14.648;2023-08-30T02:40:55;15.50;66.70
81726;DHT22;71135;16.738;-14.648;2023-08-30T02:43:24;15.50;66.70
81726;DHT22;71135;16.738;-14.648;2023-08-30T02:46:04;15.50;66.80
81726;DHT22;71135;16.738;-14.648;2023-08-30T02:48:33;15.50;66.80
81726;DHT22;71135;16.738;-14.648;2023-08-30T02:51:08;15.50;66.80
81726;DHT22;71135;16.738;-14.648;2023-08-30T02:53:42;15.50;66.80
81726;DHT22;71135;16.738;-14.648;2023-08-30T02:56:11;15.50;66.70
81726;DHT22;71135;16.738;-14.648;2023-08-30T02:58:41;15.50;66.80
81726;DHT22;71135;16.738;-14.648;2023-08-30T03:01:13;15.50;66.70
81726;DHT22;71135;16.738;-14.648;2023-08-30T03:03:42;15.50;66.70
81726;DHT22;71135;16.738;-14.648;2023-08-30T03:06:12;15.60;66.70
81726;DHT22;71135;16.738;-14.648;2023-08-30T03:08:41;15.60;66.70
81726;DHT22;71135;16.738;-14.648;2023-08-30T03:11:12;15.60;66.60
81726;DHT22;71135;16.738;-14.648;2023-08-30T03:13:46;15.60;66.60
81726;DHT22;71135;16.738;-14.648;2023-08-30T03:16:20;15.60;66.60
81726;DHT22;71135;16.738;-14.648;2023-08-30T03:18:50;15.60;66.50
81726;DHT22;71135;16.738;-14.648;2023-08-30T03:21:19;15.60;66.50
81726;DHT22;71135;16.738;-14.648;2023-08-30T03:23:48;15.60;66.50
81726;DHT22;71135;16.738;-14.648;2023-08-30T03:26:18;15.60;66.50
81726;DHT22;71135;16.738;-14.648;2023-08-30T03:28:47;15.60;66.50
81726;DHT22;71135;16.738;-14.648;2023-08-30T03:31:20;15.60;66.50
81726;DHT22;71135;16.738;-14.648;2023-08-30T03:33:50;15.60;66.60
81726;DHT22;71135;16.738;-14.648;2023-08-30T03:36:19;15.60;66.50
81726;DHT22;71135;16.738;-14.648;2023-08-30T03:38:49;15.60;66.60
81726;DHT22;71135;16.738;-14.648;2023-08-30T03:41:18;15.60;66.60
81726;DHT22;71135;16.738;-14.648;2023-08-30T03:43:47;15.60;66.60
81726;DHT22;71135;16.738;-14.648;2023-08-30T03:46:19;15.50;66.60
81726;DHT22;71135;16.738;-14.648;2023-08-30T03:48:48;15.50;66.60
81726;DHT22;71135;16.738;-14.648;2023-08-30T03:51:18;15.50;66.70
81726;DHT22;71135;16.738;-14.648;2023-08-30T03:53:48;15.50;66.70
81726;DHT22;71135;16.738;-14.648;2023-08-30T03:56:18;15.50;66.70
81726;DHT22;71135;16.738;-14.648;2023-08-30T03:58:47;15.40;66.70
81726;DHT22;71135;16.738;-14.648;2023-08-30T04:01:19;15.40;66.70
81726;DHT22;71135;16.738;-14.648;2023-08-30T04:03:48;15.40;66.70
81726;DHT22;71135;16.738;-14.648;2023-08-30T04:06:17;15.30;66.80
81726;DHT22;71135;16.738;-14.648;2023-08-30T04:08:48;15.30;66.80
81726;DHT22;71135;16.738;-14.648;2023-08-30T04:11:18;15.20;66.80
81726;DHT22;71135;16.738;-14.648;2023-08-30T04:13:54;15.10;66.90
81726;DHT22;71135;16.738;-14.648;2023-08-30T04:16:26;15.10;67.00
81726;DHT22;71135;16.738;-14.648;2023-08-30T04:18:55;15.00;67.00
81726;DHT22;71135;16.738;-14.648;2023-08-30T04:21:24;15.00;67.00
81726;DHT22;71135;16.738;-14.648;2023-08-30T04:23:53;15.00;67.00
81726;DHT22;71135;16.738;-14.648;2023-08-30T04:26:23;15.00;67.00
81726;DHT22;71135;16.738;-14.648;2023-08-30T04:28:52;15.00;67.00
81726;DHT22;71135;16.738;-14.648;2023-08-30T04:31:21;15.00;67.00
81726;DHT22;71135;16.738;-14.648;2023-08-30T04:33:53;15.00;67.10
81726;DHT22;71135;16.738;-14.648;2023-08-30T04:36:23;15.00;67.00
81726;DHT22;71135;16.738;-14.648;2023-08-30T04:38:52;15.00;67.10
81726;DHT22;71135;16.738;-14.648;2023-08-30T04:41:21;14.90;67.10
81726;DHT22;71135;16.738;-14.648;2023-08-30T04:43:50;14.90;67.00
81726;DHT22;71135;16.738;-14.648;2023-08-30T04:46:19;14.80;67.20
81726;DHT22;71135;16.738;-14.648;2023-08-30T04:48:49;14.80;67.10
81726;DHT22;71135;16.738;-14.648;2023-08-30T04:51:21;14.80;67.10
81726;DHT22;71135;16.738;-14.648;2023-08-30T04:53:50;14.80;67.10
81726;DHT22;71135;16.738;-14.648;2023-08-30T04:56:20;14.70;67.20
81726;DHT22;71135;16.738;-14.648;2023-08-30T04:58:49;14.70;67.20
81726;DHT22;71135;16.738;-14.648;2023-08-30T05:01:19;14.70;67.20
81726;DHT22;71135;16.738;-14.648;2023-08-30T05:03:51;14.60;67.20
81726;DHT22;71135;16.738;-14.648;2023-08-30T05:06:23;14.60;67.20
81726;DHT22;71135;16.738;-14.648;2023-08-30T05:08:52;14.60;67.20
81726;DHT22;71135;16.738;-14.648;2023-08-30T05:11:22;14.60;67.30
81726;DHT22;71135;16.738;-14.648;2023-08-30T05:13:51;14.60;67.30
81726;DHT22;71135;16.738;-14.648;2023-08-30T05:16:20;14.50;67.30
81726;DHT22;71135;16.738;-14.648;2023-08-30T05:18:50;14.50;67.30
81726;DHT22;71135;16.738;-14.648;2023-08-30T05:21:22;14.50;67.30
81726;DHT22;71135;16.738;-14.648;2023-08-30T05:23:52;14.50;67.20
81726;DHT22;71135;16.738;-14.648;2023-08-30T05:26:22;14.50;67.20
81726;DHT22;71135;16.738;-14.648;2023-08-30T05:28:51;14.50;67.20
81726;DHT22;71135;16.738;-14.648;2023-08-30T05:31:20;14.50;67.30
81726;DHT22;71135;16.738;-14.648;2023-08-30T05:34:19;14.50;67.40
81726;DHT22;71135;16.738;-14.648;2023-08-30T05:37:27;14.40;67.40
81726;DHT22;71135;16.738;-14.648;2023-08-30T05:40:02;14.40;67.40
81726;DHT22;71135;16.738;-14.648;2023-08-30T05:42:32;14.50;67.30
81726;DHT22;71135;16.738;-14.648;2023-08-30T05:45:01;14.50;67.30
81726;DHT22;71135;16.738;-14.648;2023-08-30T05:47:30;14.60;67.20
81726;DHT22;71135;16.738;-14.648;2023-08-30T05:49:59;14.60;67.20
81726;DHT22;71135;16.738;-14.648;2023-08-30T05:52:32;14.70;67.20
81726;DHT22;71135;16.738;-14.648;2023-08-30T05:55:02;14.80;67.10
81726;DHT22;71135;16.738;-14.648;2023-08-30T05:57:32;14.80;67.00
81726;DHT22;71135;16.738;-14.648;2023-08-30T06:00:01;14.90;66.90
81726;DHT22;71135;16.738;-14.648;2023-08-30T06:02:39;14.90;66.90
81726;DHT22;71135;16.738;-14.648;2023-08-30T06:05:09;15.00;66.70
81726;DHT22;71135;16.738;-14.648;2023-08-30T06:07:41;15.00;66.70
81726;DHT22;71135;16.738;-14.648;2023-08-30T06:10:10;15.10;66.60
81726;DHT22;71135;16.738;-14.648;2023-08-30T06:12:40;15.20;66.50
81726;DHT22;71135;16.738;-14.648;2023-08-30T06:15:09;15.30;66.20
81726;DHT22;71135;16.738;-14.648;2023-08-30T06:17:38;15.50;66.10
81726;DHT22;71135;16.738;-14.648;2023-08-30T06:20:08;15.60;65.90
81726;DHT22;71135;16.738;-14.648;2023-08-30T06:22:37;15.80;65.70
81726;DHT22;71135;16.738;-14.648;2023-08-30T06:25:11;15.80;65.60
81726;DHT22;71135;16.738;-14.648;2023-08-30T06:27:41;15.80;65.50
81726;DHT22;71135;16.738;-14.648;2023-08-30T06:30:12;15.80;65.50
81726;DHT22;71135;16.738;-14.648;2023-08-30T06:32:42;15.80;65.50
81726;DHT22;71135;16.738;-14.648;2023-08-30T06:35:11;15.80;65.50
81726;DHT22;71135;16.738;-14.648;2023-08-30T06:37:40;15.80;65.50
81726;DHT22;71135;16.738;-14.648;2023-08-30T06:40:13;15.80;65.60
81726;DHT22;71135;16.738;-14.648;2023-08-30T06:42:42;15.80;65.60
81726;DHT22;71135;16.738;-14.648;2023-08-30T06:45:11;15.70;65.60
81726;DHT22;71135;16.738;-14.648;2023-08-30T06:47:42;15.70;65.60
81726;DHT22;71135;16.738;-14.648;2023-08-30T06:50:11;15.60;65.70
81726;DHT22;71135;16.738;-14.648;2023-08-30T06:52:41;15.60;65.80
81726;DHT22;71135;16.738;-14.648;2023-08-30T06:55:13;15.60;65.80
81726;DHT22;71135;16.738;-14.648;2023-08-30T06:57:48;15.60;65.90
81726;DHT22;71135;16.738;-14.648;2023-08-30T07:00:18;15.60;66.00
81726;DHT22;71135;16.738;-14.648;2023-08-30T07:02:50;15.60;66.00
81726;DHT22;71135;16.738;-14.648;2023-08-30T07:05:21;15.60;66.10
81726;DHT22;71135;16.738;-14.648;2023-08-30T07:07:51;15.60;66.20
81726;DHT22;71135;16.738;-14.648;2023-08-30T07:10:23;15.50;66.40
81726;DHT22;71135;16.738;-14.648;2023-08-30T07:12:52;15.50;66.70
81726;DHT22;71135;16.738;-14.648;2023-08-30T07:15:21;15.40;66.90
81726;DHT22;71135;16.738;-14.648;2023-08-30T07:17:50;15.30;67.20
81726;DHT22;71135;16.738;-14.648;2023-08-30T07:20:20;15.30;67.50
81726;DHT22;71135;16.738;-14.648;2023-08-30T07:22:49;15.30;67.70
81726;DHT22;71135;16.738;-14.648;2023-08-30T07:25:18;15.20;67.80
81726;DHT22;71135;16.738;-14.648;2023-08-30T07:27:50;15.20;68.00
81726;DHT22;71135;16.738;-14.648;2023-08-30T07:30:20;15.20;68.20
81726;DHT22;71135;16.738;-14.648;2023-08-30T07:32:49;15.20;68.30
81726;DHT22;71135;16.738;-14.648;2023-08-30T07:35:18;15.20;68.40
81726;DHT22;71135;16.738;-14.648;2023-08-30T07:37:47;15.10;68.60
81726;DHT22;71135;16.738;-14.648;2023-08-30T07:40:17;15.10;68.70
81726;DHT22;71135;16.738;-14.648;2023-08-30T07:42:49;15.00;68.80
81726;DHT22;71135;16.738;-14.648;2023-08-30T07:45:18;15.00;69.00
81726;DHT22;71135;16.738;-14.648;2023-08-30T07:47:48;15.00;69.10
81726;DHT22;71135;16.738;-14.648;2023-08-30T07:50:17;15.00;69.30
81726;DHT22;71135;16.738;-14.648;2023-08-30T07:52:49;15.00;69.40
81726;DHT22;71135;16.738;-14.648;2023-08-30T07:55:18;15.00;69.60
81726;DHT22;71135;16.738;-14.648;2023-08-30T07:57:50;15.00;69.90
81726;DHT22;71135;16.738;-14.648;2023-08-30T08:00:19;15.00;70.00
81726;DHT22;71135;16.738;-14.648;2023-08-30T08:02:48;14.90;70.20
81726;DHT22;71135;16.738;-14.648;2023-08-30T08:05:17;14.90;70.30
81726;DHT22;71135;16.738;-14.648;2023-08-30T08:07:52;15.00;70.40
81726;DHT22;71135;16.738;-14.648;2023-08-30T08:10:21;15.00;70.40
81726;DHT22;71135;16.738;-14.648;2023-08-30T08:12:53;15.10;70.40
81726;DHT22;71135;16.738;-14.648;2023-08-30T08:15:22;15.20;70.50
81726;DHT22;71135;16.738;-14.648;2023-08-30T08:17:52;15.30;70.40
81726;DHT22;71135;16.738;-14.648;2023-08-30T08:20:21;15.40;70.40
81726;DHT22;71135;16.738;-14.648;2023-08-30T08:22:50;15.50;70.30
81726;DHT22;71135;16.738;-14.648;2023-08-30T08:25:19;15.50;70.30
81726;DHT22;71135;16.738;-14.648;2023-08-30T08:27:50;15.60;70.40
81726;DHT22;71135;16.738;-14.648;2023-08-30T08:30:21;15.60;70.40
81726;DHT22;71135;16.738;-14.648;2023-08-30T08:32:51;15.60;70.40
81726;DHT22;71135;16.738;-14.648;2023-08-30T08:35:21;15.70;70.40
81726;DHT22;71135;16.738;-14.648;2023-08-30T08:37:50;15.70;70.40
81726;DHT22;71135;16.738;-14.648;2023-08-30T08:40:19;15.80;70.40
81726;DHT22;71135;16.738;-14.648;2023-08-30T08:42:49;15.80;70.40
81726;DHT22;71135;16.738;-14.648;2023-08-30T08:45:24;16.00;70.30
81726;DHT22;71135;16.738;-14.648;2023-08-30T08:47:54;16.10;70.10
81726;DHT22;71135;16.738;-14.648;2023-08-30T08:50:24;16.30;69.80
81726;DHT22;71135;16.738;-14.648;2023-08-30T08:52:54;16.40;69.60
81726;DHT22;71135;16.738;-14.648;2023-08-30T08:55:25;16.60;69.50
81726;DHT22;71135;16.738;-14.648;2023-08-30T08:57:56;16.70;69.50
81726;DHT22;71135;16.738;-14.648;2023-08-30T09:00:30;16.70;69.50
81726;DHT22;71135;16.738;-14.648;2023-08-30T09:03:00;16.80;69.50
81726;DHT22;71135;16.738;-14.648;2023-08-30T09:05:31;16.80;69.40
81726;DHT22;71135;16.738;-14.648;2023-08-30T09:08:02;16.80;69.40
81726;DHT22;71135;16.738;-14.648;2023-08-30T09:10:33;16.80;69.50
81726;DHT22;71135;16.738;-14.648;2023-08-30T09:13:02;16.80;69.50
81726;DHT22;71135;16.738;-14.648;2023-08-30T09:15:35;16.90;69.50
81726;DHT22;71135;16.738;-14.648;2023-08-30T09:18:14;16.90;69.60
81726;DHT22;71135;16.738;-14.648;2023-08-30T09:20:44;16.90;69.60
81726;DHT22;71135;16.738;-14.648;2023-08-30T09:26:01;16.90;69.70
81726;DHT22;71135;16.738;-14.648;2023-08-30T09:28:31;16.90;69.70
81726;DHT22;71135;16.738;-14.648;2023-08-30T09:31:03;16.90;69.60
81726;DHT22;71135;16.738;-14.648;2023-08-30T09:33:33;16.90;69.60
81726;DHT22;71135;16.738;-14.648;2023-08-30T09:36:09;17.00;69.50
81726;DHT22;71135;16.738;-14.648;2023-08-30T09:38:39;17.00;69.50
81726;DHT22;71135;16.738;-14.648;2023-08-30T09:41:09;17.00;69.50
81726;DHT22;71135;16.738;-14.648;2023-08-30T09:43:42;17.00;69.50
81726;DHT22;71135;16.738;-14.648;2023-08-30T09:46:16;17.00;69.60
81726;DHT22;71135;16.738;-14.648;2023-08-30T09:48:45;17.00;69.60
81726;DHT22;71135;16.738;-14.648;2023-08-30T09:51:15;17.00;69.60
81726;DHT22;71135;16.738;-14.648;2023-08-30T09:53:46;17.00;69.60
81726;DHT22;71135;16.738;-14.648;2023-08-30T09:56:18;17.00;69.60
81726;DHT22;71135;16.738;-14.648;2023-08-30T09:58:48;17.00;69.50
81726;DHT22;71135;16.738;-14.648;2023-08-30T10:01:20;17.00;69.50
81726;DHT22;71135;16.738;-14.648;2023-08-30T10:03:50;17.00;69.50
81726;DHT22;71135;16.738;-14.648;2023-08-30T10:06:20;17.00;69.60
81726;DHT22;71135;16.738;-14.648;2023-08-30T10:08:52;17.00;69.50
81726;DHT22;71135;16.738;-14.648;2023-08-30T10:11:24;17.00;69.50
81726;DHT22;71135;16.738;-14.648;2023-08-30T10:13:53;17.00;69.60
81726;DHT22;71135;16.738;-14.648;2023-08-30T10:16:26;17.00;69.60
81726;DHT22;71135;16.738;-14.648;2023-08-30T10:19:02;17.00;69.60
81726;DHT22;71135;16.738;-14.648;2023-08-30T10:21:33;17.00;69.60
81726;DHT22;71135;16.738;-14.648;2023-08-30T10:24:06;17.00;69.60
81726;DHT22;71135;16.738;-14.648;2023-08-30T10:26:37;17.00;69.60
81726;DHT22;71135;16.738;-14.648;2023-08-30T10:29:08;17.10;69.40
81726;DHT22;71135;16.738;-14.648;2023-08-30T10:31:41;17.20;69.40
81726;DHT22;71135;16.738;-14.648;2023-08-30T10:34:14;17.20;69.40
81726;DHT22;71135;16.738;-14.648;2023-08-30T10:36:45;17.40;69.40
81726;DHT22;71135;16.738;-14.648;2023-08-30T10:39:33;17.40;69.30
81726;DHT22;71135;16.738;-14.648;2023-08-30T10:42:11;17.60;69.20
81726;DHT22;71135;16.738;-14.648;2023-08-30T10:44:50;17.80;68.90
81726;DHT22;71135;16.738;-14.648;2023-08-30T10:47:22;17.80;69.00
81726;DHT22;71135;16.738;-14.648;2023-08-30T10:49:53;17.80;69.10
81726;DHT22;71135;16.738;-14.648;2023-08-30T10:52:24;17.90;69.00
81726;DHT22;71135;16.738;-14.648;2023-08-30T10:54:53;18.00;69.00
81726;DHT22;71135;16.738;-14.648;2023-08-30T10:57:33;18.00;69.00
81726;DHT22;71135;16.738;-14.648;2023-08-30T11:00:07;18.00;69.00
81726;DHT22;71135;16.738;-14.648;2023-08-30T11:02:42;18.00;68.90
81726;DHT22;71135;16.738;-14.648;2023-08-30T11:05:12;18.30;69.00
81726;DHT22;71135;16.738;-14.648;2023-08-30T11:07:41;19.00;68.00
81726;DHT22;71135;16.738;-14.648;2023-08-30T11:10:12;20.60;65.60
81726;DHT22;71135;16.738;-14.648;2023-08-30T11:12:41;22.00;62.90
81726;DHT22;71135;16.738;-14.648;2023-08-30T11:15:11;22.50;62.00
81726;DHT22;71135;16.738;-14.648;2023-08-30T11:17:44;22.80;61.40
81726;DHT22;71135;16.738;-14.648;2023-08-30T11:20:15;23.80;59.90
81726;DHT22;71135;16.738;-14.648;2023-08-30T11:22:47;24.80;58.00
81726;DHT22;71135;16.738;-14.648;2023-08-30T11:25:17;25.30;56.80
81726;DHT22;71135;16.738;-14.648;2023-08-30T11:27:46;25.30;56.60
81726;DHT22;71135;16.738;-14.648;2023-08-30T11:30:16;25.00;56.80
81726;DHT22;71135;16.738;-14.648;2023-08-30T11:32:49;25.10;56.80
81726;DHT22;71135;16.738;-14.648;2023-08-30T11:35:22;26.20;54.90
81726;DHT22;71135;16.738;-14.648;2023-08-30T11:37:51;27.10;53.30
81726;DHT22;71135;16.738;-14.648;2023-08-30T11:40:20;26.90;53.30
81726;DHT22;71135;16.738;-14.648;2023-08-30T11:42:51;26.80;53.50
81726;DHT22;71135;16.738;-14.648;2023-08-30T11:45:20;27.90;52.30
81726;DHT22;71135;16.738;-14.648;2023-08-30T11:47:52;29.00;50.40
81726;DHT22;71135;16.738;-14.648;2023-08-30T11:50:21;29.20;49.90
81726;DHT22;71135;16.738;-14.648;2023-08-30T11:52:51;28.70;50.10
81726;DHT22;71135;16.738;-14.648;2023-08-30T11:55:21;29.20;49.40
81726;DHT22;71135;16.738;-14.648;2023-08-30T11:57:50;29.90;48.00
81726;DHT22;71135;16.738;-14.648;2023-08-30T12:00:21;30.30;47.20
81726;DHT22;71135;16.738;-14.648;2023-08-30T12:02:53;30.70;46.50
81726;DHT22;71135;16.738;-14.648;2023-08-30T12:05:22;31.10;45.50
81726;DHT22;71135;16.738;-14.648;2023-08-30T12:07:52;30.90;45.10
81726;DHT22;71135;16.738;-14.648;2023-08-30T12:10:21;31.00;44.80
81726;DHT22;71135;16.738;-14.648;2023-08-30T12:12:50;30.00;45.40
81726;DHT22;71135;16.738;-14.648;2023-08-30T12:15:21;28.30;47.60
81726;DHT22;71135;16.738;-14.648;2023-08-30T12:17:55;26.70;49.70
81726;DHT22;71135;16.738;-14.648;2023-08-30T12:20:24;25.60;51.00
81726;DHT22;71135;16.738;-14.648;2023-08-30T12:22:54;24.60;52.20
81726;DHT22;71135;16.738;-14.648;2023-08-30T12:25:24;24.00;53.50
81726;DHT22;71135;16.738;-14.648;2023-08-30T12:27:54;23.60;54.10
81726;DHT22;71135;16.738;-14.648;2023-08-30T12:30:23;23.40;54.80
81726;DHT22;71135;16.738;-14.648;2023-08-30T12:33:03;23.30;55.00
81726;DHT22;71135;16.738;-14.648;2023-08-30T12:35:32;23.30;55.20
81726;DHT22;71135;16.738;-14.648;2023-08-30T12:38:01;23.30;54.80
81726;DHT22;71135;16.738;-14.648;2023-08-30T12:40:31;22.90;55.40
81726;DHT22;71135;16.738;-14.648;2023-08-30T12:43:00;22.70;55.60
81726;DHT22;71135;16.738;-14.648;2023-08-30T12:45:30;22.40;56.00
81726;DHT22;71135;16.738;-14.648;2023-08-30T12:47:59;22.10;56.10
81726;DHT22;71135;16.738;-14.648;2023-08-30T12:50:31;21.90;56.50
81726;DHT22;71135;16.738;-14.648;2023-08-30T12:53:01;21.60;56.80
81726;DHT22;71135;16.738;-14.648;2023-08-30T12:55:31;21.50;57.40
81726;DHT22;71135;16.738;-14.648;2023-08-30T12:58:00;21.50;57.80
81726;DHT22;71135;16.738;-14.648;2023-08-30T13:00:30;21.70;57.60
81726;DHT22;71135;16.738;-14.648;2023-08-30T13:02:59;21.80;57.30
81726;DHT22;71135;16.738;-14.648;2023-08-30T13:05:32;21.90;57.30
81726;DHT22;71135;16.738;-14.648;2023-08-30T13:08:02;22.00;56.80
81726;DHT22;71135;16.738;-14.648;2023-08-30T13:10:32;22.20;56.90
81726;DHT22;71135;16.738;-14.648;2023-08-30T13:13:01;22.20;56.90
81726;DHT22;71135;16.738;-14.648;2023-08-30T13:15:30;22.30;56.80
81726;DHT22;71135;16.738;-14.648;2023-08-30T13:17:59;22.60;56.40
81726;DHT22;71135;16.738;-14.648;2023-08-30T13:20:31;22.70;56.00
81726;DHT22;71135;16.738;-14.648;2023-08-30T13:23:00;22.90;55.90
81726;DHT22;71135;16.738;-14.648;2023-08-30T13:25:29;23.00;55.70
81726;DHT22;71135;16.738;-14.648;2023-08-30T13:27:59;23.20;55.60
81726;DHT22;71135;16.738;-14.648;2023-08-30T13:30:28;23.30;54.80
81726;DHT22;71135;16.738;-14.648;2023-08-30T13:32:57;23.30;54.70
81726;DHT22;71135;16.738;-14.648;2023-08-30T13:35:27;23.40;54.60
81726;DHT22;71135;16.738;-14.648;2023-08-30T13:37:58;23.40;54.20
81726;DHT22;71135;16.738;-14.648;2023-08-30T13:40:27;23.50;54.60
81726;DHT22;71135;16.738;-14.648;2023-08-30T13:42:57;23.60;54.50
81726;DHT22;71135;16.738;-14.648;2023-08-30T13:45:26;23.60;54.30
81726;DHT22;71135;16.738;-14.648;2023-08-30T13:47:55;23.60;54.30
81726;DHT22;71135;16.738;-14.648;2023-08-30T13:50:25;23.40;54.20
81726;DHT22;71135;16.738;-14.648;2023-08-30T13:52:59;23.20;54.00
81726;DHT22;71135;16.738;-14.648;2023-08-30T13:55:28;22.80;54.00
81726;DHT22;71135;16.738;-14.648;2023-08-30T13:57:59;22.50;54.40
81726;DHT22;71135;16.738;-14.648;2023-08-30T14:00:28;22.20;54.80
81726;DHT22;71135;16.738;-14.648;2023-08-30T14:02:57;22.00;55.10
81726;DHT22;71135;16.738;-14.648;2023-08-30T14:05:26;21.90;55.40
81726;DHT22;71135;16.738;-14.648;2023-08-30T14:07:56;21.70;55.70
81726;DHT22;71135;16.738;-14.648;2023-08-30T14:10:27;21.40;56.20
81726;DHT22;71135;16.738;-14.648;2023-08-30T14:12:57;21.10;56.80
81726;DHT22;71135;16.738;-14.648;2023-08-30T14:15:26;20.80;57.40
81726;DHT22;71135;16.738;-14.648;2023-08-30T14:17:55;20.50;58.10
81726;DHT22;71135;16.738;-14.648;2023-08-30T14:20:24;20.30;58.90
81726;DHT22;71135;16.738;-14.648;2023-08-30T14:22:53;20.10;59.40
81726;DHT22;71135;16.738;-14.648;2023-08-30T14:25:22;19.90;59.80
81726;DHT22;71135;16.738;-14.648;2023-08-30T14:27:54;19.70;60.30
81726;DHT22;71135;16.738;-14.648;2023-08-30T14:30:24;19.70;60.70
81726;DHT22;71135;16.738;-14.648;2023-08-30T14:32:53;19.60;60.90
81726;DHT22;71135;16.738;-14.648;2023-08-30T14:35:22;19.50;61.10
81726;DHT22;71135;16.738;-14.648;2023-08-30T14:37:52;19.60;61.20
81726;DHT22;71135;16.738;-14.648;2023-08-30T14:40:21;19.70;60.90
81726;DHT22;71135;16.738;-14.648;2023-08-30T14:42:50;19.70;60.90
81726;DHT22;71135;16.738;-14.648;2023-08-30T14:45:22;19.70;60.80
81726;DHT22;71135;16.738;-14.648;2023-08-30T14:47:51;19.80;60.80
81726;DHT22;71135;16.738;-14.648;2023-08-30T14:50:20;19.80;60.80
81726;DHT22;71135;16.738;-14.648;2023-08-30T14:52:49;19.90;60.70
81726;DHT22;71135;16.738;-14.648;2023-08-30T14:55:21;19.90;60.50
81726;DHT22;71135;16.738;-14.648;2023-08-30T14:57:51;19.90;60.10
81726;DHT22;71135;16.738;-14.648;2023-08-30T15:00:24;19.90;60.20
81726;DHT22;71135;16.738;-14.648;2023-08-30T15:02:53;19.90;60.00
81726;DHT22;71135;16.738;-14.648;2023-08-30T15:05:22;19.90;60.00
81726;DHT22;71135;16.738;-14.648;2023-08-30T15:07:51;19.90;59.90
81726;DHT22;71135;16.738;-14.648;2023-08-30T15:10:21;20.00;59.70
81726;DHT22;71135;16.738;-14.648;2023-08-30T15:12:50;20.00;59.70
81726;DHT22;71135;16.738;-14.648;2023-08-30T15:15:19;20.00;59.80
81726;DHT22;71135;16.738;-14.648;2023-08-30T15:17:51;20.10;59.80
81726;DHT22;71135;16.738;-14.648;2023-08-30T15:20:20;20.20;59.70
81726;DHT22;71135;16.738;-14.648;2023-08-30T15:22:51;20.30;59.70
81726;DHT22;71135;16.738;-14.648;2023-08-30T15:25:20;20.30;59.90
81726;DHT22;71135;16.738;-14.648;2023-08-30T15:27:49;20.40;59.50